Terminal Aerodrome Forecast
Issued by NWS

Home | Current Version | Previous Version | Text Only | Print | Product List | Glossary On
Versions: 1 2 3 4 5 6 7 8 9 10 11 12 13 14 15 16 17
309
FTUS43 KDVN 091600 AAA
TAFBRL
TAF AMD
KBRL 091600Z 0916/1012 30010KT P6SM BKN025
     FM091800 30008KT P6SM BKN035
     FM092200 27003KT P6SM BKN070=

USA.gov is the U.S. government's official web portal to all federal, state and local government web resources and services.